Time;durP1;ratioP1;P1;durP2;ratioP2;P2;SDS_P1;SDS_P2;PMS_P1;PMS_P2;Temp;Humidity;BMP_temperature;BMP_pressure;BME280_temperature;BME280_humidity;BME280_pressure;Samples;Min_cycle;Max_cycle;Signal;HPM_P1;HPM_P2
2023/07/01 00:00:48;;;;;;;;;;;12.40;99.90;;;;;;4945461;28;19922;-86
2023/07/01 00:03:20;;;;;;;;;;;12.30;99.90;;;;;;4957069;28;20248;-86
2023/07/01 00:05:46;;;;;;;;;;;12.30;99.90;;;;;;4941320;28;19926;-86
2023/07/01 00:08:11;;;;;;;;;;;12.20;99.90;;;;;;4971588;28;19918;-86
2023/07/01 00:10:37;;;;;;;;;;;12.10;99.90;;;;;;4961711;28;19918;-85
2023/07/01 00:13:03;;;;;;;;;;;12.00;99.90;;;;;;4943083;28;20371;-86
2023/07/01 00:15:28;;;;;;;;;;;12.00;99.90;;;;;;4961417;28;20386;-86
2023/07/01 00:17:54;;;;;;;;;;;12.00;99.90;;;;;;4961163;28;20278;-85
2023/07/01 00:20:26;;;;;;;;;;;12.00;99.90;;;;;;4951171;28;19921;-86
2023/07/01 00:22:52;;;;;;;;;;;11.90;99.90;;;;;;4960333;28;20313;-86
2023/07/01 00:25:18;;;;;;;;;;;11.80;99.90;;;;;;4962590;28;19920;-86
2023/07/01 00:30:51;;;;;;;;;;;11.70;99.90;;;;;;4959736;28;19969;-85
2023/07/01 00:33:17;;;;;;;;;;;11.80;99.90;;;;;;4978427;28;19914;-85
2023/07/01 00:35:42;;;;;;;;;;;11.70;99.90;;;;;;4961703;28;19921;-85
2023/07/01 00:38:08;;;;;;;;;;;11.60;99.90;;;;;;4940397;28;19915;-86
2023/07/01 00:40:34;;;;;;;;;;;11.60;99.90;;;;;;4973894;28;19921;-86
2023/07/01 00:42:59;;;;;;;;;;;11.60;99.90;;;;;;4938071;28;19920;-85
2023/07/01 00:45:25;;;;;;;;;;;11.50;99.90;;;;;;4973707;28;19921;-85
2023/07/01 00:47:50;;;;;;;;;;;11.40;99.90;;;;;;4936085;28;19966;-85
2023/07/01 00:50:16;;;;;;;;;;;11.40;99.90;;;;;;4955715;28;19914;-85
2023/07/01 00:52:42;;;;;;;;;;;11.40;99.90;;;;;;4940314;28;19922;-86
2023/07/01 00:55:08;;;;;;;;;;;11.40;99.90;;;;;;4953690;28;20012;-86
2023/07/01 00:57:49;;;;;;;;;;;11.40;99.90;;;;;;4954420;28;19919;-85
2023/07/01 01:00:15;;;;;;;;;;;11.30;99.90;;;;;;4934683;28;19922;-85
2023/07/01 01:02:40;;;;;;;;;;;11.40;99.90;;;;;;4944342;28;20267;-85
2023/07/01 01:05:11;;;;;;;;;;;11.30;99.90;;;;;;4959667;28;19911;-86
2023/07/01 01:07:42;;;;;;;;;;;11.30;99.90;;;;;;4960560;28;19915;-85
2023/07/01 01:10:11;;;;;;;;;;;11.30;99.90;;;;;;4958156;28;19920;-85
2023/07/01 01:12:38;;;;;;;;;;;11.30;99.90;;;;;;4947223;28;19919;-85
2023/07/01 01:15:04;;;;;;;;;;;11.20;99.90;;;;;;4946195;28;20313;-86
2023/07/01 01:17:33;;;;;;;;;;;11.20;99.90;;;;;;4953816;28;19966;-85
2023/07/01 01:20:01;;;;;;;;;;;11.20;99.90;;;;;;4953062;28;20421;-86
2023/07/01 01:22:31;;;;;;;;;;;11.20;99.90;;;;;;4935101;28;19914;-86
2023/07/01 01:24:58;;;;;;;;;;;11.30;99.90;;;;;;4938581;28;19914;-86
2023/07/01 01:27:27;;;;;;;;;;;11.40;99.90;;;;;;4946603;28;20270;-86
2023/07/01 01:29:53;;;;;;;;;;;11.40;99.90;;;;;;4963660;28;19926;-86
2023/07/01 01:32:19;;;;;;;;;;;11.50;99.90;;;;;;4941109;29;19925;-84
2023/07/01 01:34:44;;;;;;;;;;;11.50;99.90;;;;;;4962475;28;19914;-85
2023/07/01 01:37:12;;;;;;;;;;;11.70;99.90;;;;;;4964303;28;20318;-85
2023/07/01 01:39:41;;;;;;;;;;;11.80;99.90;;;;;;4943525;28;19915;-85
2023/07/01 01:42:09;;;;;;;;;;;12.00;99.90;;;;;;4941465;28;20108;-85
2023/07/01 01:44:48;;;;;;;;;;;12.20;99.90;;;;;;4957715;28;19914;-86
2023/07/01 01:47:15;;;;;;;;;;;12.30;99.90;;;;;;4963733;28;19925;-85
2023/07/01 01:49:42;;;;;;;;;;;12.40;99.90;;;;;;4963547;28;19918;-86
2023/07/01 01:52:10;;;;;;;;;;;12.40;99.90;;;;;;4958594;28;20342;-86
2023/07/01 01:54:37;;;;;;;;;;;12.60;99.90;;;;;;4962880;28;19910;-86
2023/07/01 01:57:03;;;;;;;;;;;12.70;99.90;;;;;;4980184;28;19914;-86
2023/07/01 01:59:28;;;;;;;;;;;12.80;99.90;;;;;;4947391;28;19918;-86
2023/07/01 02:01:54;;;;;;;;;;;13.00;99.90;;;;;;4963267;28;20323;-85
2023/07/01 02:04:20;;;;;;;;;;;13.20;99.90;;;;;;4938575;28;20359;-86
2023/07/01 02:06:47;;;;;;;;;;;13.40;99.90;;;;;;4961000;28;20267;-86
2023/07/01 02:09:13;;;;;;;;;;;13.60;99.90;;;;;;4933612;29;19934;-86
2023/07/01 02:11:39;;;;;;;;;;;13.80;99.90;;;;;;4955312;28;20008;-85
2023/07/01 02:14:04;;;;;;;;;;;13.90;99.90;;;;;;4931798;28;20289;-86
2023/07/01 02:16:32;;;;;;;;;;;14.00;99.90;;;;;;4940495;28;19966;-86
2023/07/01 02:18:57;;;;;;;;;;;14.00;99.90;;;;;;4938761;28;20413;-86
2023/07/01 02:21:23;;;;;;;;;;;14.10;99.90;;;;;;4954172;28;19918;-86
2023/07/01 02:23:48;;;;;;;;;;;14.10;99.90;;;;;;4949483;28;19942;-86
2023/07/01 02:26:14;;;;;;;;;;;14.10;99.90;;;;;;4967319;28;20384;-86
2023/07/01 02:28:40;;;;;;;;;;;13.90;99.90;;;;;;4935476;28;19914;-86
2023/07/01 02:31:05;;;;;;;;;;;13.80;99.90;;;;;;4957530;28;19960;-86
2023/07/01 02:33:31;;;;;;;;;;;13.70;99.90;;;;;;4937232;29;19915;-86
2023/07/01 02:35:57;;;;;;;;;;;13.50;99.90;;;;;;4961004;28;20374;-86
2023/07/01 02:38:23;;;;;;;;;;;13.30;99.90;;;;;;4947750;28;19914;-86
2023/07/01 02:40:48;;;;;;;;;;;13.10;99.90;;;;;;4957491;28;19918;-86
2023/07/01 02:43:14;;;;;;;;;;;12.90;99.90;;;;;;4961338;28;19961;-86
2023/07/01 02:45:40;;;;;;;;;;;12.80;99.90;;;;;;4937438;28;20282;-86
2023/07/01 02:48:05;;;;;;;;;;;12.70;99.90;;;;;;4938869;28;19914;-86
2023/07/01 02:50:31;;;;;;;;;;;12.50;99.90;;;;;;4951323;28;20366;-86
2023/07/01 02:52:57;;;;;;;;;;;12.40;99.90;;;;;;4953402;28;20378;-86
2023/07/01 02:55:27;;;;;;;;;;;12.20;99.90;;;;;;4948547;28;20405;-86
2023/07/01 02:57:54;;;;;;;;;;;12.10;99.90;;;;;;4949805;28;19922;-86
2023/07/01 03:00:21;;;;;;;;;;;12.00;99.90;;;;;;4931512;28;19914;-86
2023/07/01 03:02:47;;;;;;;;;;;11.90;99.90;;;;;;4961066;28;19918;-86
2023/07/01 03:05:12;;;;;;;;;;;11.70;99.90;;;;;;4959585;28;19915;-86
2023/07/01 03:11:06;;;;;;;;;;;11.50;99.90;;;;;;4970773;28;19924;-85
2023/07/01 03:13:32;;;;;;;;;;;11.40;99.90;;;;;;4943617;28;19914;-86
2023/07/01 03:16:00;;;;;;;;;;;11.40;99.90;;;;;;4960933;28;19958;-86
2023/07/01 03:18:26;;;;;;;;;;;11.30;99.90;;;;;;4958265;28;19915;-86
2023/07/01 03:20:51;;;;;;;;;;;11.30;99.90;;;;;;4944603;28;20442;-86
2023/07/01 03:23:17;;;;;;;;;;;11.20;99.90;;;;;;4971690;28;19914;-85
2023/07/01 03:25:43;;;;;;;;;;;11.20;99.90;;;;;;4949441;28;20367;-85
2023/07/01 03:28:09;;;;;;;;;;;11.10;99.90;;;;;;4957325;28;19915;-86
2023/07/01 03:34:04;;;;;;;;;;;11.20;99.90;;;;;;4978404;28;19980;-85
2023/07/01 03:36:29;;;;;;;;;;;11.10;99.90;;;;;;4953843;28;19940;-85
2023/07/01 03:38:56;;;;;;;;;;;11.00;99.90;;;;;;4958317;28;19922;-86
2023/07/01 03:41:21;;;;;;;;;;;11.00;99.90;;;;;;4960952;28;19914;-86
2023/07/01 03:43:47;;;;;;;;;;;11.00;99.90;;;;;;4961052;28;19922;-85
2023/07/01 03:46:13;;;;;;;;;;;11.10;99.90;;;;;;4959761;28;20343;-86
2023/07/01 03:48:39;;;;;;;;;;;11.30;99.90;;;;;;4936443;29;19914;-86
2023/07/01 03:51:04;;;;;;;;;;;11.60;99.90;;;;;;4958847;28;19925;-86
2023/07/01 03:53:30;;;;;;;;;;;11.80;99.90;;;;;;4952625;29;19914;-86
2023/07/01 03:55:55;;;;;;;;;;;12.00;99.90;;;;;;4942136;28;19961;-85
2023/07/01 03:58:24;;;;;;;;;;;11.90;99.90;;;;;;4954122;28;19991;-86
2023/07/01 04:00:53;;;;;;;;;;;12.10;99.90;;;;;;4939080;28;19921;-86
2023/07/01 04:03:23;;;;;;;;;;;12.00;99.90;;;;;;4937030;28;19918;-86
2023/07/01 04:05:50;;;;;;;;;;;12.00;99.90;;;;;;4952887;28;19915;-86
2023/07/01 04:08:15;;;;;;;;;;;12.00;99.90;;;;;;4944076;28;19915;-86
2023/07/01 04:10:41;;;;;;;;;;;12.10;99.90;;;;;;4959432;28;19924;-86
2023/07/01 04:13:06;;;;;;;;;;;12.20;99.90;;;;;;4959628;28;20389;-86
2023/07/01 04:15:32;;;;;;;;;;;12.30;99.90;;;;;;4949223;29;20330;-86
2023/07/01 04:17:57;;;;;;;;;;;12.30;99.90;;;;;;4971420;28;19914;-86
2023/07/01 04:20:23;;;;;;;;;;;12.30;99.90;;;;;;4969008;28;20008;-86
2023/07/01 04:23:26;;;;;;;;;;;12.40;99.90;;;;;;4955403;28;19914;-86
2023/07/01 04:25:51;;;;;;;;;;;12.50;99.90;;;;;;4953398;28;19914;-85
2023/07/01 04:28:17;;;;;;;;;;;12.70;99.90;;;;;;4967252;28;19922;-86
2023/07/01 04:30:43;;;;;;;;;;;12.70;99.90;;;;;;4955495;28;20580;-86
2023/07/01 04:33:08;;;;;;;;;;;12.80;99.90;;;;;;4952998;28;19925;-85
2023/07/01 04:35:34;;;;;;;;;;;12.90;99.90;;;;;;4972199;28;19918;-86
2023/07/01 04:37:59;;;;;;;;;;;13.00;99.90;;;;;;4975904;28;19914;-86
2023/07/01 04:40:25;;;;;;;;;;;13.10;99.90;;;;;;4935818;28;20293;-86
2023/07/01 04:42:50;;;;;;;;;;;13.20;99.90;;;;;;4973563;28;19914;-86
2023/07/01 04:45:18;;;;;;;;;;;13.20;99.90;;;;;;4954071;28;19921;-86
2023/07/01 04:47:44;;;;;;;;;;;13.30;99.90;;;;;;4939861;28;19934;-86
2023/07/01 04:50:10;;;;;;;;;;;13.40;99.90;;;;;;4958318;28;19918;-85
2023/07/01 04:52:36;;;;;;;;;;;13.40;99.90;;;;;;4938107;29;19926;-86
2023/07/01 04:55:01;;;;;;;;;;;13.50;99.90;;;;;;4967206;28;19921;-85
2023/07/01 04:57:27;;;;;;;;;;;13.60;99.90;;;;;;4940320;28;20001;-85
2023/07/01 04:59:52;;;;;;;;;;;13.60;99.90;;;;;;4960273;28;20045;-86
2023/07/01 05:02:19;;;;;;;;;;;13.80;99.90;;;;;;4942850;28;19976;-86
2023/07/01 05:04:44;;;;;;;;;;;13.80;99.90;;;;;;4962357;28;20255;-86
2023/07/01 05:07:10;;;;;;;;;;;13.80;99.90;;;;;;4942478;28;19961;-85
2023/07/01 05:09:35;;;;;;;;;;;13.90;99.90;;;;;;4962700;28;19922;-86
2023/07/01 05:12:01;;;;;;;;;;;14.00;99.90;;;;;;4940884;28;19957;-85
2023/07/01 05:14:27;;;;;;;;;;;14.00;99.90;;;;;;4939141;29;19922;-86
2023/07/01 05:17:14;;;;;;;;;;;14.00;99.90;;;;;;4943868;28;19995;-85
2023/07/01 05:19:40;;;;;;;;;;;14.00;99.90;;;;;;4957332;28;19914;-85
2023/07/01 05:22:07;;;;;;;;;;;14.10;99.90;;;;;;4950770;28;19922;-86
2023/07/01 05:24:32;;;;;;;;;;;14.20;99.90;;;;;;4962063;28;19961;-86
2023/07/01 05:26:58;;;;;;;;;;;14.30;99.90;;;;;;4962143;28;19914;-86
2023/07/01 05:29:26;;;;;;;;;;;14.30;99.90;;;;;;4962816;28;19918;-86
2023/07/01 05:31:52;;;;;;;;;;;14.40;99.90;;;;;;4956851;28;19918;-86
2023/07/01 05:34:17;;;;;;;;;;;14.60;99.90;;;;;;4961162;28;20397;-86
2023/07/01 05:36:43;;;;;;;;;;;14.70;99.90;;;;;;4979354;28;19922;-86
2023/07/01 05:39:09;;;;;;;;;;;14.90;99.90;;;;;;4961427;28;19914;-86
2023/07/01 05:41:35;;;;;;;;;;;15.00;99.90;;;;;;4962483;28;19933;-86
2023/07/01 05:44:05;;;;;;;;;;;15.00;99.90;;;;;;4935642;28;19915;-85
2023/07/01 05:46:30;;;;;;;;;;;15.10;99.90;;;;;;4946533;28;19914;-85
2023/07/01 05:48:56;;;;;;;;;;;15.10;99.90;;;;;;4961955;28;19915;-86
2023/07/01 05:51:40;;;;;;;;;;;15.20;99.90;;;;;;4961818;28;19925;-85
2023/07/01 05:54:05;;;;;;;;;;;15.20;99.90;;;;;;4962877;28;19935;-85
2023/07/01 05:56:31;;;;;;;;;;;15.20;99.90;;;;;;4923179;29;19950;-85
2023/07/01 05:58:57;;;;;;;;;;;15.20;99.90;;;;;;4945628;28;19918;-86
2023/07/01 06:01:22;;;;;;;;;;;15.10;99.90;;;;;;4948028;29;19915;-86
2023/07/01 06:03:48;;;;;;;;;;;15.20;99.90;;;;;;4950869;28;19918;-86
2023/07/01 06:06:13;;;;;;;;;;;15.00;99.90;;;;;;4962728;28;19950;-86
2023/07/01 06:08:41;;;;;;;;;;;15.00;99.90;;;;;;4954441;28;19914;-86
2023/07/01 06:11:07;;;;;;;;;;;14.90;99.90;;;;;;4973264;28;19919;-86
2023/07/01 06:13:32;;;;;;;;;;;14.90;99.90;;;;;;4965490;28;20273;-86
2023/07/01 06:15:58;;;;;;;;;;;15.00;99.90;;;;;;4959047;28;20005;-85
2023/07/01 06:18:24;;;;;;;;;;;15.00;99.90;;;;;;4956701;28;19922;-85
2023/07/01 06:20:49;;;;;;;;;;;15.20;99.90;;;;;;4968308;28;19914;-84
2023/07/01 06:23:16;;;;;;;;;;;15.30;99.90;;;;;;4952334;28;20377;-85
2023/07/01 06:25:41;;;;;;;;;;;15.50;99.90;;;;;;4941018;28;19921;-84
2023/07/01 06:28:07;;;;;;;;;;;15.60;99.90;;;;;;4955224;28;19914;-85
2023/07/01 06:30:32;;;;;;;;;;;15.60;99.90;;;;;;4935215;28;19921;-86
2023/07/01 06:32:58;;;;;;;;;;;15.70;99.90;;;;;;4933482;28;19915;-85
2023/07/01 06:35:23;;;;;;;;;;;15.80;99.90;;;;;;4955595;28;19918;-85
2023/07/01 06:37:49;;;;;;;;;;;15.90;99.90;;;;;;4945179;28;19914;-84
2023/07/01 06:40:15;;;;;;;;;;;16.00;99.90;;;;;;4953770;28;19914;-85
2023/07/01 06:42:40;;;;;;;;;;;16.00;99.90;;;;;;4955419;29;19922;-85
2023/07/01 06:45:06;;;;;;;;;;;16.10;99.90;;;;;;4955686;28;20005;-85
2023/07/01 06:47:32;;;;;;;;;;;16.20;99.90;;;;;;4954124;28;19933;-85
2023/07/01 06:49:57;;;;;;;;;;;16.40;99.90;;;;;;4947841;28;19914;-86
2023/07/01 06:52:23;;;;;;;;;;;16.60;99.90;;;;;;4933993;29;19927;-86
2023/07/01 06:54:49;;;;;;;;;;;16.80;99.90;;;;;;4969459;28;19922;-86
2023/07/01 06:57:14;;;;;;;;;;;16.90;99.90;;;;;;4952391;28;19929;-85
2023/07/01 06:59:40;;;;;;;;;;;17.00;99.90;;;;;;4953186;29;20373;-86
2023/07/01 07:02:06;;;;;;;;;;;17.00;99.90;;;;;;4950670;28;20371;-88
2023/07/01 07:04:31;;;;;;;;;;;17.00;99.90;;;;;;4959873;28;19915;-86
2023/07/01 07:06:57;;;;;;;;;;;17.10;99.90;;;;;;4948001;28;19921;-85
2023/07/01 07:09:23;;;;;;;;;;;17.10;99.90;;;;;;4949420;28;20259;-86
2023/07/01 07:11:50;;;;;;;;;;;17.30;99.90;;;;;;4953525;28;19922;-86
2023/07/01 07:14:15;;;;;;;;;;;17.50;99.90;;;;;;4957013;28;19914;-86
2023/07/01 07:16:45;;;;;;;;;;;18.00;99.90;;;;;;4927255;28;19918;-86
2023/07/01 07:19:11;;;;;;;;;;;19.10;99.90;;;;;;4947002;28;19968;-85
2023/07/01 07:21:37;;;;;;;;;;;20.30;99.90;;;;;;4967506;28;19910;-86
2023/07/01 07:24:02;;;;;;;;;;;21.30;99.90;;;;;;4963978;28;19918;-87
2023/07/01 07:26:28;;;;;;;;;;;22.00;99.90;;;;;;4971136;28;19937;-86
2023/07/01 07:28:54;;;;;;;;;;;22.10;99.90;;;;;;4937946;28;19925;-86
2023/07/01 07:31:19;;;;;;;;;;;22.40;99.90;;;;;;4952656;28;20453;-86
2023/07/01 07:33:45;;;;;;;;;;;22.40;99.90;;;;;;4932355;28;19937;-85
2023/07/01 07:36:11;;;;;;;;;;;22.50;99.90;;;;;;4954358;28;20311;-86
2023/07/01 07:38:36;;;;;;;;;;;22.50;99.90;;;;;;4950968;28;19915;-86
2023/07/01 07:41:03;;;;;;;;;;;22.50;99.90;;;;;;4971385;28;20370;-86
2023/07/01 07:43:28;;;;;;;;;;;22.70;99.90;;;;;;4950276;28;20366;-86
2023/07/01 07:45:54;;;;;;;;;;;21.60;99.90;;;;;;4955662;28;19921;-86
2023/07/01 07:48:20;;;;;;;;;;;20.60;99.90;;;;;;4953364;28;19993;-86
2023/07/01 07:50:46;;;;;;;;;;;20.00;99.90;;;;;;4951652;28;19918;-86
2023/07/01 07:53:13;;;;;;;;;;;19.40;99.90;;;;;;4951089;28;20007;-87
2023/07/01 07:55:39;;;;;;;;;;;19.30;99.90;;;;;;4951056;28;19954;-86
2023/07/01 07:58:05;;;;;;;;;;;19.40;99.90;;;;;;4957788;28;19921;-86
2023/07/01 08:00:31;;;;;;;;;;;19.40;99.90;;;;;;4953149;28;19914;-86
2023/07/01 08:02:57;;;;;;;;;;;19.60;99.90;;;;;;4956294;28;19918;-86
2023/07/01 08:05:24;;;;;;;;;;;20.10;99.90;;;;;;4942390;28;19914;-84
2023/07/01 08:07:50;;;;;;;;;;;20.70;99.90;;;;;;4949480;28;20274;-85
2023/07/01 08:10:16;;;;;;;;;;;21.50;99.90;;;;;;4939908;28;19919;-86
2023/07/01 08:12:41;;;;;;;;;;;21.30;99.90;;;;;;4951531;28;19918;-85
2023/07/01 08:15:08;;;;;;;;;;;21.30;99.90;;;;;;4950252;28;19921;-86
2023/07/01 08:17:34;;;;;;;;;;;20.80;99.90;;;;;;4945523;28;20341;-86
2023/07/01 08:20:00;;;;;;;;;;;20.60;99.90;;;;;;4942074;28;19944;-85
2023/07/01 08:22:27;;;;;;;;;;;20.70;99.90;;;;;;4954037;28;19921;-84
2023/07/01 08:24:52;;;;;;;;;;;21.10;99.90;;;;;;4932405;28;19984;-84
2023/07/01 08:27:18;;;;;;;;;;;21.20;99.90;;;;;;4958785;28;19918;-85
2023/07/01 08:33:12;;;;;;;;;;;21.50;99.90;;;;;;4974377;28;19926;-84
2023/07/01 08:35:37;;;;;;;;;;;21.60;99.90;;;;;;4969188;28;19914;-85
2023/07/01 08:38:03;;;;;;;;;;;21.40;99.90;;;;;;4954071;28;19919;-85
2023/07/01 08:40:29;;;;;;;;;;;21.50;99.90;;;;;;4932963;28;19910;-84
2023/07/01 08:43:01;;;;;;;;;;;22.20;99.90;;;;;;4972518;28;19918;-85
2023/07/01 08:45:55;;;;;;;;;;;22.30;99.90;;;;;;4945116;28;19919;-85
2023/07/01 08:48:21;;;;;;;;;;;22.60;99.90;;;;;;4951970;28;19914;-85
2023/07/01 08:51:00;;;;;;;;;;;23.60;99.90;;;;;;4957249;28;20048;-85
2023/07/01 08:53:26;;;;;;;;;;;24.40;99.60;;;;;;4943699;28;19921;-85
2023/07/01 08:55:52;;;;;;;;;;;23.90;98.70;;;;;;4935660;29;19914;-85
2023/07/01 08:58:18;;;;;;;;;;;23.10;99.90;;;;;;4973330;28;19937;-85
2023/07/01 09:00:43;;;;;;;;;;;23.30;99.60;;;;;;4933575;29;19931;-85
2023/07/01 09:03:11;;;;;;;;;;;22.90;99.60;;;;;;4956676;28;19918;-85
2023/07/01 09:05:37;;;;;;;;;;;22.90;99.90;;;;;;4958622;28;19937;-85
2023/07/01 09:08:18;;;;;;;;;;;22.30;99.90;;;;;;4957619;28;19914;-84
2023/07/01 09:10:43;;;;;;;;;;;22.40;99.90;;;;;;4961820;28;19918;-85
2023/07/01 09:13:12;;;;;;;;;;;23.00;99.90;;;;;;4937732;28;19918;-85
2023/07/01 09:15:43;;;;;;;;;;;23.40;99.30;;;;;;4958533;28;19918;-85
2023/07/01 09:18:18;;;;;;;;;;;23.90;98.60;;;;;;4970013;28;19936;-84
2023/07/01 09:20:44;;;;;;;;;;;23.90;97.60;;;;;;4935697;28;19922;-84
2023/07/01 09:23:09;;;;;;;;;;;22.90;98.70;;;;;;4971506;28;19920;-86
2023/07/01 09:25:50;;;;;;;;;;;23.30;98.70;;;;;;4958152;28;19921;-85
2023/07/01 09:28:29;;;;;;;;;;;23.20;98.20;;;;;;4934114;28;19949;-85
2023/07/01 09:30:58;;;;;;;;;;;23.70;98.10;;;;;;4954670;28;19957;-85
2023/07/01 09:33:23;;;;;;;;;;;24.00;96.50;;;;;;4955484;28;20001;-85
2023/07/01 09:35:54;;;;;;;;;;;23.70;95.60;;;;;;4934161;29;20016;-85
2023/07/01 09:38:20;;;;;;;;;;;23.10;95.70;;;;;;4967910;28;20396;-85
2023/07/01 09:40:45;;;;;;;;;;;22.80;96.10;;;;;;4945463;29;19919;-86
2023/07/01 09:43:11;;;;;;;;;;;22.50;96.80;;;;;;4923189;28;19914;-85
2023/07/01 09:45:41;;;;;;;;;;;21.90;97.80;;;;;;4936756;28;19914;-85
2023/07/01 09:48:16;;;;;;;;;;;22.10;98.20;;;;;;4940781;28;19914;-86
2023/07/01 09:50:41;;;;;;;;;;;22.20;97.90;;;;;;4942094;28;20001;-86
2023/07/01 09:53:27;;;;;;;;;;;22.30;98.40;;;;;;4939718;28;19950;-85
2023/07/01 09:55:53;;;;;;;;;;;22.20;98.30;;;;;;4920763;29;19915;-86
2023/07/01 09:58:19;;;;;;;;;;;21.90;98.60;;;;;;4941873;28;19915;-86
2023/07/01 10:01:12;;;;;;;;;;;21.10;99.70;;;;;;4952323;28;19922;-85
2023/07/01 10:03:38;;;;;;;;;;;20.90;99.90;;;;;;4939283;29;19918;-86
2023/07/01 10:06:04;;;;;;;;;;;20.70;99.90;;;;;;4941225;28;19919;-86
2023/07/01 10:08:30;;;;;;;;;;;20.60;99.90;;;;;;4929045;28;19965;-85
2023/07/01 10:11:16;;;;;;;;;;;20.70;99.90;;;;;;4954864;28;19971;-86
2023/07/01 10:13:46;;;;;;;;;;;20.40;99.90;;;;;;4943681;28;20367;-86
2023/07/01 10:16:11;;;;;;;;;;;20.10;99.90;;;;;;4954988;28;19961;-86
2023/07/01 10:18:37;;;;;;;;;;;20.30;99.90;;;;;;4959923;28;19914;-85
2023/07/01 10:21:22;;;;;;;;;;;20.60;99.90;;;;;;4939929;28;19925;-86
2023/07/01 10:23:47;;;;;;;;;;;20.70;99.90;;;;;;4964398;28;19914;-87
2023/07/01 10:26:31;;;;;;;;;;;21.30;99.90;;;;;;4955530;28;19914;-85
2023/07/01 10:28:57;;;;;;;;;;;21.40;99.90;;;;;;4960110;28;19914;-86
2023/07/01 10:31:23;;;;;;;;;;;21.40;99.90;;;;;;4959970;28;20012;-86
2023/07/01 10:33:49;;;;;;;;;;;20.80;99.90;;;;;;4937331;29;20298;-85
2023/07/01 10:36:18;;;;;;;;;;;20.70;99.90;;;;;;4974459;28;19914;-86
2023/07/01 10:38:44;;;;;;;;;;;21.10;99.90;;;;;;4955033;28;19980;-87
2023/07/01 10:41:09;;;;;;;;;;;21.00;99.90;;;;;;4948788;28;20449;-86
2023/07/01 10:43:38;;;;;;;;;;;21.20;99.90;;;;;;4953711;28;19966;-86
2023/07/01 10:46:21;;;;;;;;;;;21.20;99.90;;;;;;4954460;29;20434;-86
2023/07/01 10:49:06;;;;;;;;;;;21.30;99.90;;;;;;4959351;28;19914;-86
2023/07/01 10:51:51;;;;;;;;;;;21.10;99.90;;;;;;4919607;29;19953;-86
2023/07/01 10:54:31;;;;;;;;;;;20.90;99.90;;;;;;4957301;28;19921;-86
2023/07/01 10:57:09;;;;;;;;;;;20.80;99.90;;;;;;4937722;28;20449;-86
2023/07/01 10:59:35;;;;;;;;;;;21.20;99.90;;;;;;4947553;28;19914;-86
2023/07/01 11:02:07;;;;;;;;;;;21.40;99.90;;;;;;4976506;28;19918;-86
2023/07/01 11:04:51;;;;;;;;;;;21.40;99.90;;;;;;4946438;28;19925;-86
2023/07/01 11:07:24;;;;;;;;;;;21.40;99.90;;;;;;4971185;28;19958;-85
2023/07/01 11:09:50;;;;;;;;;;;21.50;99.90;;;;;;4959677;28;19925;-86
2023/07/01 11:12:15;;;;;;;;;;;21.20;99.90;;;;;;4976127;28;19918;-85
2023/07/01 11:14:41;;;;;;;;;;;21.30;99.90;;;;;;4935491;28;19918;-86
2023/07/01 11:17:11;;;;;;;;;;;21.10;99.90;;;;;;4934398;29;19962;-85
2023/07/01 11:19:38;;;;;;;;;;;21.00;99.90;;;;;;4952262;28;19921;-85
2023/07/01 11:22:04;;;;;;;;;;;20.80;99.90;;;;;;4943196;28;20372;-86
2023/07/01 11:24:30;;;;;;;;;;;20.50;99.90;;;;;;4960001;28;20282;-86
2023/07/01 11:26:59;;;;;;;;;;;20.10;99.90;;;;;;4959517;28;19914;-85
2023/07/01 11:29:25;;;;;;;;;;;19.60;99.90;;;;;;4951311;28;19934;-86
2023/07/01 11:31:59;;;;;;;;;;;19.50;99.90;;;;;;4937600;28;19926;-86
2023/07/01 11:34:26;;;;;;;;;;;19.40;99.90;;;;;;4923190;28;19957;-86
2023/07/01 11:36:51;;;;;;;;;;;19.40;99.90;;;;;;4955370;28;19910;-86
2023/07/01 11:39:18;;;;;;;;;;;19.40;99.90;;;;;;4939013;28;19969;-86
2023/07/01 11:41:44;;;;;;;;;;;19.40;99.90;;;;;;4939755;28;19918;-86
2023/07/01 11:44:13;;;;;;;;;;;19.80;99.90;;;;;;4924114;28;19918;-86
2023/07/01 11:46:40;;;;;;;;;;;20.20;99.90;;;;;;4924061;29;19914;-86
2023/07/01 11:49:26;;;;;;;;;;;20.40;99.90;;;;;;4940149;29;19981;-86
2023/07/01 11:52:28;;;;;;;;;;;20.50;99.90;;;;;;4923894;29;19923;-85
2023/07/01 11:54:54;;;;;;;;;;;20.60;99.90;;;;;;4959347;28;19922;-85
2023/07/01 11:57:20;;;;;;;;;;;20.50;99.90;;;;;;4940259;28;19973;-85
2023/07/01 11:59:53;;;;;;;;;;;20.30;99.90;;;;;;4960029;28;20044;-86
2023/07/01 12:02:29;;;;;;;;;;;20.20;99.90;;;;;;4969633;28;19997;-85
2023/07/01 12:04:55;;;;;;;;;;;20.10;99.90;;;;;;4949363;28;19918;-85
2023/07/01 12:07:20;;;;;;;;;;;20.00;99.90;;;;;;4945441;28;20274;-85
2023/07/01 12:10:16;;;;;;;;;;;19.90;99.90;;;;;;4961136;28;19977;-86
2023/07/01 12:12:41;;;;;;;;;;;19.90;99.90;;;;;;4959467;28;19918;-86
2023/07/01 12:15:09;;;;;;;;;;;19.90;99.90;;;;;;4944935;29;20017;-86
2023/07/01 12:17:36;;;;;;;;;;;19.70;99.90;;;;;;4966045;28;19914;-86
2023/07/01 12:20:03;;;;;;;;;;;19.80;99.90;;;;;;4941209;28;20375;-86
2023/07/01 12:22:29;;;;;;;;;;;19.70;99.90;;;;;;4958561;28;19928;-85
2023/07/01 12:24:55;;;;;;;;;;;19.70;99.90;;;;;;4940975;28;20390;-85
2023/07/01 12:27:21;;;;;;;;;;;19.80;99.90;;;;;;4960786;28;20274;-84
2023/07/01 12:29:46;;;;;;;;;;;19.80;99.90;;;;;;4948797;28;19914;-86
2023/07/01 12:32:18;;;;;;;;;;;19.80;99.90;;;;;;4952941;28;19918;-85
2023/07/01 12:34:44;;;;;;;;;;;19.80;99.90;;;;;;4924581;28;19925;-85
2023/07/01 12:37:10;;;;;;;;;;;19.50;99.90;;;;;;4951636;28;20418;-85
2023/07/01 12:39:36;;;;;;;;;;;19.50;99.90;;;;;;4946727;28;19914;-85
2023/07/01 12:42:02;;;;;;;;;;;19.40;99.90;;;;;;4930571;28;20268;-86
2023/07/01 12:44:28;;;;;;;;;;;19.40;99.90;;;;;;4951960;28;19922;-86
2023/07/01 12:47:21;;;;;;;;;;;19.70;99.90;;;;;;4950506;29;19933;-85
2023/07/01 12:49:47;;;;;;;;;;;20.00;99.90;;;;;;4967059;28;19920;-86
2023/07/01 12:52:12;;;;;;;;;;;19.70;99.90;;;;;;4943552;29;20519;-86
2023/07/01 12:54:38;;;;;;;;;;;19.40;99.90;;;;;;4949687;28;19921;-86
2023/07/01 12:57:03;;;;;;;;;;;19.30;99.90;;;;;;4946641;28;19915;-85
2023/07/01 12:59:29;;;;;;;;;;;19.20;99.90;;;;;;4953623;28;20009;-85
2023/07/01 13:01:55;;;;;;;;;;;19.60;99.90;;;;;;4945657;28;20422;-85
2023/07/01 13:04:20;;;;;;;;;;;20.10;99.90;;;;;;4937194;28;20362;-85
2023/07/01 13:06:47;;;;;;;;;;;20.90;99.90;;;;;;4946678;29;19914;-85
2023/07/01 13:09:13;;;;;;;;;;;21.40;99.90;;;;;;4952116;28;19903;-86
2023/07/01 13:11:50;;;;;;;;;;;21.80;99.90;;;;;;4968028;28;20306;-86
2023/07/01 13:14:16;;;;;;;;;;;21.40;99.90;;;;;;4957588;28;20033;-86
2023/07/01 13:16:42;;;;;;;;;;;21.20;99.90;;;;;;4926513;28;19921;-86
2023/07/01 13:19:12;;;;;;;;;;;21.50;99.90;;;;;;4936465;28;19914;-86
2023/07/01 13:21:48;;;;;;;;;;;21.60;99.90;;;;;;4948784;28;19914;-85
2023/07/01 13:24:14;;;;;;;;;;;21.40;99.90;;;;;;4961319;28;20155;-85
2023/07/01 13:26:44;;;;;;;;;;;21.00;99.90;;;;;;4971426;28;20405;-85
2023/07/01 13:29:13;;;;;;;;;;;21.10;99.90;;;;;;4941642;28;19926;-85
2023/07/01 13:31:40;;;;;;;;;;;21.00;99.90;;;;;;4975874;28;19965;-85
2023/07/01 13:37:11;;;;;;;;;;;20.90;99.90;;;;;;4966482;28;20321;-86
2023/07/01 13:39:44;;;;;;;;;;;20.70;99.90;;;;;;4940911;28;19956;-85
2023/07/01 13:42:10;;;;;;;;;;;20.70;99.90;;;;;;4958311;28;19936;-85
2023/07/01 13:44:37;;;;;;;;;;;20.80;99.90;;;;;;4953120;28;20367;-86
2023/07/01 13:47:21;;;;;;;;;;;21.00;99.90;;;;;;4973815;28;19921;-86
2023/07/01 13:49:51;;;;;;;;;;;21.20;99.90;;;;;;4961014;28;20384;-85
2023/07/01 13:52:16;;;;;;;;;;;21.20;99.90;;;;;;4961984;28;20020;-87
2023/07/01 13:54:48;;;;;;;;;;;21.30;99.90;;;;;;4979387;28;19972;-87
2023/07/01 13:57:42;;;;;;;;;;;21.00;99.90;;;;;;4955133;28;19918;-86
2023/07/01 14:00:08;;;;;;;;;;;20.70;99.90;;;;;;4957104;28;19953;-86
2023/07/01 14:02:38;;;;;;;;;;;20.80;99.90;;;;;;4978981;28;20478;-86
2023/07/01 14:05:04;;;;;;;;;;;20.60;99.90;;;;;;4961135;28;19946;-87
2023/07/01 14:07:32;;;;;;;;;;;20.70;99.90;;;;;;4961370;28;19914;-87
2023/07/01 14:09:57;;;;;;;;;;;20.60;99.90;;;;;;4954245;28;19914;-86
2023/07/01 14:12:25;;;;;;;;;;;20.70;99.90;;;;;;4937004;28;19923;-84
2023/07/01 14:14:50;;;;;;;;;;;20.30;99.90;;;;;;4977803;28;19945;-84
2023/07/01 14:17:18;;;;;;;;;;;20.40;99.90;;;;;;4961883;28;20334;-84
2023/07/01 14:19:46;;;;;;;;;;;20.50;99.90;;;;;;4952931;28;19933;-85
2023/07/01 14:22:13;;;;;;;;;;;20.80;99.90;;;;;;4961012;28;19914;-83
2023/07/01 14:24:54;;;;;;;;;;;20.80;99.90;;;;;;4946669;28;19929;-93
2023/07/01 14:27:27;;;;;;;;;;;20.80;99.90;;;;;;4944010;28;19965;-83
2023/07/01 14:29:52;;;;;;;;;;;20.80;99.90;;;;;;4961291;28;19921;-85
2023/07/01 14:32:18;;;;;;;;;;;20.60;99.90;;;;;;4958560;28;19918;-84
2023/07/01 14:34:44;;;;;;;;;;;20.50;99.90;;;;;;4953689;28;19970;-84
2023/07/01 14:37:13;;;;;;;;;;;20.50;99.90;;;;;;4959286;28;19921;-86